Terminal Aerodrome Forecast
Issued by NWS

Home | Current Version | Previous Version | Text Only | Print | Product List | Glossary On
Versions: 1 2 3 4 5 6 7 8 9 10 11 12 13 14 15 16 17
973
FTUS45 KABQ 172345
TAFTCC
TAF
KTCC 172345Z 1800/1824 27007KT P6SM VCSH SCT070
      TEMPO 1801/1805 5SM -RA BR OVC035
     FM180600 24006KT P6SM BKN030 OVC060
     FM180900 25009KT 2SM BR OVC009
     FM181500 24010KT P6SM BKN250
     FM182100 24013G20KT P6SM SKC=

USA.gov is the U.S. government's official web portal to all federal, state and local government web resources and services.